sensor_id;sensor_type;location;lat;lon;timestamp;pressure;altitude;pressure_sealevel;temperature;humidity
71948;BME280;63257;55.082;38.772;2023-05-23T00:01:00;100246.91;;;14.46;58.14
71948;BME280;63257;55.082;38.772;2023-05-23T00:03:26;100252.78;;;14.51;59.14
71948;BME280;63257;55.082;38.772;2023-05-23T00:05:53;100245.97;;;14.47;58.69
71948;BME280;63257;55.082;38.772;2023-05-23T00:08:21;100246.78;;;14.48;58.39
71948;BME280;63257;55.082;38.772;2023-05-23T00:10:48;100251.94;;;14.51;58.76
71948;BME280;63257;55.082;38.772;2023-05-23T00:13:14;100244.91;;;14.50;58.21
71948;BME280;63257;55.082;38.772;2023-05-23T00:15:40;100235.03;;;14.52;58.70
71948;BME280;63257;55.082;38.772;2023-05-23T00:18:07;100246.09;;;14.58;57.70
71948;BME280;63257;55.082;38.772;2023-05-23T00:20:37;100246.75;;;14.62;58.29
71948;BME280;63257;55.082;38.772;2023-05-23T00:23:08;100251.22;;;14.62;58.54
71948;BME280;63257;55.082;38.772;2023-05-23T00:25:35;100244.50;;;14.56;58.13
71948;BME280;63257;55.082;38.772;2023-05-23T00:28:03;100243.75;;;14.54;58.04
71948;BME280;63257;55.082;38.772;2023-05-23T00:30:30;100245.47;;;14.55;58.86
71948;BME280;63257;55.082;38.772;2023-05-23T00:32:57;100249.16;;;14.52;58.77
71948;BME280;63257;55.082;38.772;2023-05-23T00:35:25;100241.47;;;14.48;59.01
71948;BME280;63257;55.082;38.772;2023-05-23T00:37:51;100251.06;;;14.50;57.89
71948;BME280;63257;55.082;38.772;2023-05-23T00:40:17;100256.00;;;14.56;58.72
71948;BME280;63257;55.082;38.772;2023-05-23T00:42:44;100252.47;;;14.56;58.28
71948;BME280;63257;55.082;38.772;2023-05-23T00:45:10;100255.31;;;14.53;58.51
71948;BME280;63257;55.082;38.772;2023-05-23T00:47:40;100244.81;;;14.51;58.73
71948;BME280;63257;55.082;38.772;2023-05-23T00:50:07;100229.34;;;14.43;59.02
71948;BME280;63257;55.082;38.772;2023-05-23T00:52:34;100241.94;;;14.54;59.08
71948;BME280;63257;55.082;38.772;2023-05-23T00:55:00;100244.22;;;14.61;59.04
71948;BME280;63257;55.082;38.772;2023-05-23T00:57:28;100244.59;;;14.69;58.62
71948;BME280;63257;55.082;38.772;2023-05-23T00:59:54;100249.28;;;14.78;58.97
71948;BME280;63257;55.082;38.772;2023-05-23T01:02:20;100259.41;;;14.86;58.94
71948;BME280;63257;55.082;38.772;2023-05-23T01:04:48;100200.22;;;14.56;58.88
71948;BME280;63257;55.082;38.772;2023-05-23T01:07:22;100264.13;;;14.95;59.13
71948;BME280;63257;55.082;38.772;2023-05-23T01:09:48;100265.72;;;14.98;59.48
71948;BME280;63257;55.082;38.772;2023-05-23T01:14:46;100260.75;;;15.06;59.55
71948;BME280;63257;55.082;38.772;2023-05-23T01:17:18;100241.50;;;15.02;58.22
71948;BME280;63257;55.082;38.772;2023-05-23T01:20:02;100260.44;;;15.10;58.39
71948;BME280;63257;55.082;38.772;2023-05-23T01:23:15;100268.84;;;15.17;59.27
71948;BME280;63257;55.082;38.772;2023-05-23T01:28:50;100254.16;;;15.12;59.32
71948;BME280;63257;55.082;38.772;2023-05-23T01:31:19;100264.25;;;15.19;58.96
71948;BME280;63257;55.082;38.772;2023-05-23T01:33:48;100247.97;;;15.11;59.25
71948;BME280;63257;55.082;38.772;2023-05-23T01:36:15;100265.03;;;15.21;58.81
71948;BME280;63257;55.082;38.772;2023-05-23T01:38:41;100252.47;;;15.10;59.54
71948;BME280;63257;55.082;38.772;2023-05-23T01:41:07;100275.56;;;15.23;59.39
71948;BME280;63257;55.082;38.772;2023-05-23T01:43:33;100257.38;;;15.17;59.34
71948;BME280;63257;55.082;38.772;2023-05-23T01:45:59;100276.09;;;15.28;59.22
71948;BME280;63257;55.082;38.772;2023-05-23T01:48:27;100269.84;;;15.29;59.03
71948;BME280;63257;55.082;38.772;2023-05-23T01:50:54;100245.47;;;15.22;59.33
71948;BME280;63257;55.082;38.772;2023-05-23T01:53:22;100264.19;;;15.34;59.01
71948;BME280;63257;55.082;38.772;2023-05-23T01:55:49;100260.47;;;15.36;59.28
71948;BME280;63257;55.082;38.772;2023-05-23T01:58:16;100260.91;;;15.43;58.60
71948;BME280;63257;55.082;38.772;2023-05-23T02:00:42;100260.81;;;15.44;58.90
71948;BME280;63257;55.082;38.772;2023-05-23T02:03:08;100262.06;;;15.52;58.96
71948;BME280;63257;55.082;38.772;2023-05-23T02:05:34;100261.84;;;15.55;59.69
71948;BME280;63257;55.082;38.772;2023-05-23T02:08:00;100257.19;;;15.58;58.88
71948;BME280;63257;55.082;38.772;2023-05-23T02:10:26;100264.84;;;15.63;59.40
71948;BME280;63257;55.082;38.772;2023-05-23T02:12:53;100251.22;;;15.55;59.51
71948;BME280;63257;55.082;38.772;2023-05-23T02:15:19;100262.06;;;15.65;59.74
71948;BME280;63257;55.082;38.772;2023-05-23T02:17:45;100267.31;;;15.66;60.29
71948;BME280;63257;55.082;38.772;2023-05-23T02:20:13;100248.56;;;15.55;59.80
71948;BME280;63257;55.082;38.772;2023-05-23T02:22:39;100249.53;;;15.67;60.68
71948;BME280;63257;55.082;38.772;2023-05-23T02:25:05;100252.06;;;15.68;61.21
71948;BME280;63257;55.082;38.772;2023-05-23T02:27:31;100244.84;;;15.70;61.09
71948;BME280;63257;55.082;38.772;2023-05-23T02:29:57;100256.34;;;15.71;60.72
71948;BME280;63257;55.082;38.772;2023-05-23T02:32:23;100246.75;;;15.68;61.84
71948;BME280;63257;55.082;38.772;2023-05-23T02:34:49;100246.31;;;15.61;62.52
71948;BME280;63257;55.082;38.772;2023-05-23T02:37:15;100256.56;;;15.68;61.46
71948;BME280;63257;55.082;38.772;2023-05-23T02:39:44;100246.75;;;15.68;61.90
71948;BME280;63257;55.082;38.772;2023-05-23T02:42:10;100225.38;;;15.57;62.28
71948;BME280;63257;55.082;38.772;2023-05-23T02:44:36;100249.31;;;15.70;62.77
71948;BME280;63257;55.082;38.772;2023-05-23T02:47:02;100220.78;;;15.59;63.05
71948;BME280;63257;55.082;38.772;2023-05-23T02:49:28;100248.88;;;15.76;63.38
71948;BME280;63257;55.082;38.772;2023-05-23T02:51:54;100212.19;;;15.55;64.06
71948;BME280;63257;55.082;38.772;2023-05-23T02:54:21;100247.81;;;15.78;63.43
71948;BME280;63257;55.082;38.772;2023-05-23T02:56:46;100234.94;;;15.72;64.87
71948;BME280;63257;55.082;38.772;2023-05-23T02:59:12;100248.78;;;15.77;66.11
71948;BME280;63257;55.082;38.772;2023-05-23T03:01:38;100245.94;;;15.81;65.72
71948;BME280;63257;55.082;38.772;2023-05-23T03:04:04;100254.84;;;15.80;66.09
71948;BME280;63257;55.082;38.772;2023-05-23T03:06:30;100247.06;;;15.76;67.56
71948;BME280;63257;55.082;38.772;2023-05-23T03:09:00;100251.31;;;15.79;68.13
71948;BME280;63257;55.082;38.772;2023-05-23T03:11:25;100256.56;;;15.81;67.02
71948;BME280;63257;55.082;38.772;2023-05-23T03:13:51;100255.72;;;15.80;67.94
71948;BME280;63257;55.082;38.772;2023-05-23T03:16:17;100250.69;;;15.75;68.50
71948;BME280;63257;55.082;38.772;2023-05-23T03:18:43;100236.56;;;15.62;70.52
71948;BME280;63257;55.082;38.772;2023-05-23T03:21:09;100262.72;;;15.68;70.33
71948;BME280;63257;55.082;38.772;2023-05-23T03:23:35;100261.88;;;15.68;67.16
71948;BME280;63257;55.082;38.772;2023-05-23T03:26:02;100275.78;;;15.71;68.33
71948;BME280;63257;55.082;38.772;2023-05-23T03:28:31;100292.13;;;15.80;66.62
71948;BME280;63257;55.082;38.772;2023-05-23T03:30:57;100276.78;;;15.83;65.58
71948;BME280;63257;55.082;38.772;2023-05-23T03:33:23;100264.22;;;15.72;65.38
71948;BME280;63257;55.082;38.772;2023-05-23T03:35:49;100290.22;;;15.82;64.49
71948;BME280;63257;55.082;38.772;2023-05-23T03:38:15;100276.16;;;15.80;64.88
71948;BME280;63257;55.082;38.772;2023-05-23T03:40:41;100290.00;;;15.85;64.40
71948;BME280;63257;55.082;38.772;2023-05-23T03:43:07;100287.66;;;15.80;64.96
71948;BME280;63257;55.082;38.772;2023-05-23T03:45:36;100287.09;;;15.88;64.59
71948;BME280;63257;55.082;38.772;2023-05-23T03:48:07;100276.03;;;15.81;64.71
71948;BME280;63257;55.082;38.772;2023-05-23T03:50:34;100288.09;;;15.87;64.82
71948;BME280;63257;55.082;38.772;2023-05-23T03:53:00;100278.28;;;15.87;64.61
71948;BME280;63257;55.082;38.772;2023-05-23T03:55:26;100269.53;;;15.85;64.64
71948;BME280;63257;55.082;38.772;2023-05-23T03:57:51;100282.44;;;15.91;64.43
71948;BME280;63257;55.082;38.772;2023-05-23T04:00:18;100279.53;;;15.94;64.91
71948;BME280;63257;55.082;38.772;2023-05-23T04:02:45;100278.25;;;16.00;64.79
71948;BME280;63257;55.082;38.772;2023-05-23T04:05:13;100272.81;;;16.02;64.38
71948;BME280;63257;55.082;38.772;2023-05-23T04:07:40;100279.75;;;16.04;64.50
71948;BME280;63257;55.082;38.772;2023-05-23T04:10:11;100274.22;;;16.07;64.43
71948;BME280;63257;55.082;38.772;2023-05-23T04:12:37;100265.47;;;16.05;63.91
71948;BME280;63257;55.082;38.772;2023-05-23T04:15:08;100269.94;;;16.18;64.01
71948;BME280;63257;55.082;38.772;2023-05-23T04:17:42;100273.72;;;16.26;64.16
71948;BME280;63257;55.082;38.772;2023-05-23T04:20:08;100280.44;;;16.32;64.40
71948;BME280;63257;55.082;38.772;2023-05-23T04:22:35;100287.47;;;16.33;63.76
71948;BME280;63257;55.082;38.772;2023-05-23T04:25:03;100276.81;;;16.33;63.93
71948;BME280;63257;55.082;38.772;2023-05-23T04:27:32;100287.50;;;16.57;63.86
71948;BME280;63257;55.082;38.772;2023-05-23T04:29:59;100269.81;;;16.56;64.30
71948;BME280;63257;55.082;38.772;2023-05-23T04:32:25;100284.22;;;16.78;63.70
71948;BME280;63257;55.082;38.772;2023-05-23T04:34:52;100289.09;;;16.84;64.89
71948;BME280;63257;55.082;38.772;2023-05-23T04:37:18;100271.97;;;16.75;63.84
71948;BME280;63257;55.082;38.772;2023-05-23T04:39:51;100260.88;;;16.82;63.83
71948;BME280;63257;55.082;38.772;2023-05-23T04:42:36;100281.59;;;17.02;64.47
71948;BME280;63257;55.082;38.772;2023-05-23T04:45:15;100268.75;;;17.07;63.81
71948;BME280;63257;55.082;38.772;2023-05-23T04:47:56;100279.63;;;17.28;63.65
71948;BME280;63257;55.082;38.772;2023-05-23T04:50:34;100278.06;;;17.49;64.30
71948;BME280;63257;55.082;38.772;2023-05-23T04:53:05;100275.78;;;17.67;62.76
71948;BME280;63257;55.082;38.772;2023-05-23T04:55:31;100267.56;;;17.81;62.83
71948;BME280;63257;55.082;38.772;2023-05-23T04:57:57;100252.63;;;17.78;61.37
71948;BME280;63257;55.082;38.772;2023-05-23T05:00:22;100269.03;;;17.96;62.19
71948;BME280;63257;55.082;38.772;2023-05-23T05:02:49;100270.75;;;18.09;61.43
71948;BME280;63257;55.082;38.772;2023-05-23T05:05:15;100260.69;;;18.12;61.32
71948;BME280;63257;55.082;38.772;2023-05-23T05:07:41;100262.97;;;18.17;61.07
71948;BME280;63257;55.082;38.772;2023-05-23T05:10:09;100252.16;;;18.30;61.90
71948;BME280;63257;55.082;38.772;2023-05-23T05:12:45;100254.81;;;18.41;61.03
71948;BME280;63257;55.082;38.772;2023-05-23T05:15:17;100252.84;;;18.43;61.59
71948;BME280;63257;55.082;38.772;2023-05-23T05:17:46;100256.59;;;18.52;61.11
71948;BME280;63257;55.082;38.772;2023-05-23T05:20:14;100230.38;;;18.46;60.97
71948;BME280;63257;55.082;38.772;2023-05-23T05:22:41;100238.59;;;18.54;61.47
71948;BME280;63257;55.082;38.772;2023-05-23T05:25:10;100236.19;;;18.51;62.19
71948;BME280;63257;55.082;38.772;2023-05-23T05:27:38;100238.47;;;18.56;61.77
71948;BME280;63257;55.082;38.772;2023-05-23T05:30:06;100233.81;;;18.69;61.53
71948;BME280;63257;55.082;38.772;2023-05-23T05:32:41;100218.59;;;18.81;60.93
71948;BME280;63257;55.082;38.772;2023-05-23T05:35:10;100226.50;;;19.04;60.20
71948;BME280;63257;55.082;38.772;2023-05-23T05:37:39;100228.75;;;19.20;59.86
71948;BME280;63257;55.082;38.772;2023-05-23T05:40:06;100223.66;;;19.38;60.69
71948;BME280;63257;55.082;38.772;2023-05-23T05:42:35;100224.44;;;19.49;60.71
71948;BME280;63257;55.082;38.772;2023-05-23T05:45:01;100240.59;;;19.69;59.60
71948;BME280;63257;55.082;38.772;2023-05-23T05:47:30;100224.69;;;19.77;58.91
71948;BME280;63257;55.082;38.772;2023-05-23T05:49:56;100225.47;;;19.89;58.88
71948;BME280;63257;55.082;38.772;2023-05-23T05:52:22;100200.34;;;19.80;58.14
71948;BME280;63257;55.082;38.772;2023-05-23T05:54:48;100228.47;;;20.06;58.27
71948;BME280;63257;55.082;38.772;2023-05-23T05:57:14;100219.06;;;20.11;57.96
71948;BME280;63257;55.082;38.772;2023-05-23T05:59:40;100225.28;;;20.22;57.38
71948;BME280;63257;55.082;38.772;2023-05-23T06:02:06;100204.97;;;20.19;57.51
71948;BME280;63257;55.082;38.772;2023-05-23T06:04:33;100218.97;;;20.42;57.42
71948;BME280;63257;55.082;38.772;2023-05-23T06:06:59;100232.81;;;20.47;56.40
71948;BME280;63257;55.082;38.772;2023-05-23T06:09:25;100213.75;;;20.41;56.09
71948;BME280;63257;55.082;38.772;2023-05-23T06:11:50;100185.25;;;20.30;55.75
71948;BME280;63257;55.082;38.772;2023-05-23T06:14:17;100211.09;;;20.50;55.34
71948;BME280;63257;55.082;38.772;2023-05-23T06:16:48;100211.78;;;20.43;54.69
71948;BME280;63257;55.082;38.772;2023-05-23T06:19:14;100214.06;;;20.47;55.02
71948;BME280;63257;55.082;38.772;2023-05-23T06:21:40;100209.81;;;20.45;55.45
71948;BME280;63257;55.082;38.772;2023-05-23T06:24:08;100212.50;;;20.55;54.84
71948;BME280;63257;55.082;38.772;2023-05-23T06:26:34;100211.22;;;20.59;54.26
71948;BME280;63257;55.082;38.772;2023-05-23T06:29:02;100213.78;;;20.60;54.93
71948;BME280;63257;55.082;38.772;2023-05-23T06:31:28;100218.00;;;20.63;54.17
71948;BME280;63257;55.082;38.772;2023-05-23T06:33:53;100221.25;;;20.57;54.10
71948;BME280;63257;55.082;38.772;2023-05-23T06:36:19;100219.13;;;20.50;55.12
71948;BME280;63257;55.082;38.772;2023-05-23T06:38:47;100218.97;;;20.52;55.62
71948;BME280;63257;55.082;38.772;2023-05-23T06:41:13;100220.25;;;20.48;56.03
71948;BME280;63257;55.082;38.772;2023-05-23T06:43:39;100223.22;;;20.55;56.31
71948;BME280;63257;55.082;38.772;2023-05-23T06:46:13;100208.22;;;20.23;56.99
71948;BME280;63257;55.082;38.772;2023-05-23T06:48:39;100227.53;;;20.26;57.17
71948;BME280;63257;55.082;38.772;2023-05-23T06:51:05;100214.09;;;20.07;57.73
71948;BME280;63257;55.082;38.772;2023-05-23T06:53:31;100224.53;;;20.10;58.39
71948;BME280;63257;55.082;38.772;2023-05-23T06:55:57;100217.22;;;20.12;58.47
71948;BME280;63257;55.082;38.772;2023-05-23T06:58:24;100228.53;;;20.15;58.69
71948;BME280;63257;55.082;38.772;2023-05-23T07:00:53;100219.38;;;20.28;59.28
71948;BME280;63257;55.082;38.772;2023-05-23T07:03:31;100235.63;;;20.36;58.93
71948;BME280;63257;55.082;38.772;2023-05-23T07:06:02;100240.72;;;20.39;59.60
71948;BME280;63257;55.082;38.772;2023-05-23T07:08:32;100237.88;;;20.41;60.38
71948;BME280;63257;55.082;38.772;2023-05-23T07:11:04;100247.63;;;20.32;59.53
71948;BME280;63257;55.082;38.772;2023-05-23T07:13:36;100242.47;;;20.19;59.94
71948;BME280;63257;55.082;38.772;2023-05-23T07:16:03;100247.41;;;20.14;61.40
71948;BME280;63257;55.082;38.772;2023-05-23T07:18:32;100240.75;;;20.08;62.04
71948;BME280;63257;55.082;38.772;2023-05-23T07:20:58;100247.38;;;20.04;61.85
71948;BME280;63257;55.082;38.772;2023-05-23T07:23:24;100224.47;;;19.90;63.08
71948;BME280;63257;55.082;38.772;2023-05-23T07:32:50;100226.66;;;20.06;63.90
71948;BME280;63257;55.082;38.772;2023-05-23T07:35:19;100240.59;;;20.00;63.21
71948;BME280;63257;55.082;38.772;2023-05-23T07:37:54;100246.09;;;19.98;62.94
71948;BME280;63257;55.082;38.772;2023-05-23T07:43:52;100255.78;;;19.90;63.58
71948;BME280;63257;55.082;38.772;2023-05-23T07:46:18;100252.97;;;19.91;63.52
71948;BME280;63257;55.082;38.772;2023-05-23T07:48:44;100254.81;;;19.91;63.76
71948;BME280;63257;55.082;38.772;2023-05-23T07:51:11;100257.09;;;20.05;63.46
71948;BME280;63257;55.082;38.772;2023-05-23T07:53:37;100261.06;;;20.11;65.47
71948;BME280;63257;55.082;38.772;2023-05-23T07:56:07;100255.25;;;20.06;64.77
71948;BME280;63257;55.082;38.772;2023-05-23T07:58:36;100252.53;;;19.86;65.62
71948;BME280;63257;55.082;38.772;2023-05-23T08:01:02;100255.84;;;19.78;65.64
71948;BME280;63257;55.082;38.772;2023-05-23T08:03:57;100261.81;;;19.82;66.55
71948;BME280;63257;55.082;38.772;2023-05-23T08:06:33;100259.72;;;19.86;66.34
71948;BME280;63257;55.082;38.772;2023-05-23T08:09:04;100247.09;;;19.76;66.60
71948;BME280;63257;55.082;38.772;2023-05-23T08:11:32;100260.16;;;19.91;67.35
71948;BME280;63257;55.082;38.772;2023-05-23T08:13:59;100258.84;;;19.85;66.78
71948;BME280;63257;55.082;38.772;2023-05-23T08:16:46;100264.13;;;19.75;69.06
71948;BME280;63257;55.082;38.772;2023-05-23T08:19:17;100249.44;;;19.70;69.04
71948;BME280;63257;55.082;38.772;2023-05-23T08:21:45;100236.47;;;19.65;70.34
71948;BME280;63257;55.082;38.772;2023-05-23T08:28:28;100233.69;;;19.45;71.86
71948;BME280;63257;55.082;38.772;2023-05-23T08:30:54;100258.81;;;19.54;72.28
71948;BME280;63257;55.082;38.772;2023-05-23T08:33:21;100248.72;;;19.58;73.01
71948;BME280;63257;55.082;38.772;2023-05-23T08:35:49;100230.38;;;19.63;72.57
71948;BME280;63257;55.082;38.772;2023-05-23T08:38:17;100243.63;;;19.64;73.83
71948;BME280;63257;55.082;38.772;2023-05-23T08:41:14;100247.03;;;19.66;73.14
71948;BME280;63257;55.082;38.772;2023-05-23T08:43:41;100244.97;;;19.70;73.48
71948;BME280;63257;55.082;38.772;2023-05-23T08:46:11;100243.25;;;19.69;72.44
71948;BME280;63257;55.082;38.772;2023-05-23T08:48:38;100239.47;;;19.72;72.06
71948;BME280;63257;55.082;38.772;2023-05-23T08:51:06;100239.53;;;19.81;72.11
71948;BME280;63257;55.082;38.772;2023-05-23T08:53:35;100213.25;;;19.75;71.41
71948;BME280;63257;55.082;38.772;2023-05-23T08:56:05;100228.22;;;20.09;71.58
71948;BME280;63257;55.082;38.772;2023-05-23T08:58:41;100232.63;;;20.20;72.06
71948;BME280;63257;55.082;38.772;2023-05-23T09:01:08;100236.91;;;20.42;70.59
71948;BME280;63257;55.082;38.772;2023-05-23T09:03:36;100212.50;;;20.55;67.34
71948;BME280;63257;55.082;38.772;2023-05-23T09:06:22;100228.75;;;20.92;64.67
71948;BME280;63257;55.082;38.772;2023-05-23T09:08:49;100197.72;;;20.99;65.80
71948;BME280;63257;55.082;38.772;2023-05-23T09:11:18;100189.81;;;20.98;66.05
71948;BME280;63257;55.082;38.772;2023-05-23T09:13:46;100215.75;;;21.17;65.06
71948;BME280;63257;55.082;38.772;2023-05-23T09:16:16;100206.16;;;21.14;61.51
71948;BME280;63257;55.082;38.772;2023-05-23T09:18:55;100212.09;;;21.08;61.58
71948;BME280;63257;55.082;38.772;2023-05-23T09:21:23;100208.28;;;21.11;64.13
71948;BME280;63257;55.082;38.772;2023-05-23T09:24:11;100204.88;;;21.28;62.94
71948;BME280;63257;55.082;38.772;2023-05-23T09:26:57;100190.31;;;21.21;59.97
71948;BME280;63257;55.082;38.772;2023-05-23T09:29:26;100204.09;;;21.46;59.22
71948;BME280;63257;55.082;38.772;2023-05-23T09:31:59;100200.78;;;21.72;60.85
71948;BME280;63257;55.082;38.772;2023-05-23T09:34:27;100207.53;;;21.76;59.42
71948;BME280;63257;55.082;38.772;2023-05-23T09:36:54;100204.22;;;21.92;59.31
71948;BME280;63257;55.082;38.772;2023-05-23T09:39:20;100198.19;;;22.08;59.80
71948;BME280;63257;55.082;38.772;2023-05-23T09:41:49;100180.63;;;22.13;57.84
71948;BME280;63257;55.082;38.772;2023-05-23T09:44:21;100196.03;;;22.39;56.58
71948;BME280;63257;55.082;38.772;2023-05-23T09:46:50;100190.97;;;22.36;54.77
71948;BME280;63257;55.082;38.772;2023-05-23T09:49:53;100194.59;;;22.45;56.65
71948;BME280;63257;55.082;38.772;2023-05-23T09:52:19;100189.19;;;22.45;58.85
71948;BME280;63257;55.082;38.772;2023-05-23T09:54:46;100187.22;;;22.47;53.84
71948;BME280;63257;55.082;38.772;2023-05-23T09:57:14;100179.69;;;22.50;54.11
71948;BME280;63257;55.082;38.772;2023-05-23T09:59:41;100191.13;;;22.70;54.83
71948;BME280;63257;55.082;38.772;2023-05-23T10:02:11;100187.06;;;22.66;52.01
71948;BME280;63257;55.082;38.772;2023-05-23T10:04:38;100192.03;;;22.97;53.08
71948;BME280;63257;55.082;38.772;2023-05-23T10:07:25;100187.47;;;23.16;53.00
71948;BME280;63257;55.082;38.772;2023-05-23T10:10:02;100183.13;;;23.23;53.02
71948;BME280;63257;55.082;38.772;2023-05-23T10:15:02;100188.28;;;23.34;54.20
71948;BME280;63257;55.082;38.772;2023-05-23T10:17:38;100176.72;;;22.98;54.01
71948;BME280;63257;55.082;38.772;2023-05-23T10:20:10;100174.78;;;23.26;55.44
71948;BME280;63257;55.082;38.772;2023-05-23T10:22:41;100175.50;;;23.36;53.21
71948;BME280;63257;55.082;38.772;2023-05-23T10:25:07;100173.16;;;23.42;53.19
71948;BME280;63257;55.082;38.772;2023-05-23T10:27:36;100154.75;;;23.29;52.59
71948;BME280;63257;55.082;38.772;2023-05-23T10:30:04;100169.28;;;23.36;52.80
71948;BME280;63257;55.082;38.772;2023-05-23T10:32:32;100170.25;;;23.35;52.71
71948;BME280;63257;55.082;38.772;2023-05-23T10:38:00;100173.34;;;23.40;53.28
71948;BME280;63257;55.082;38.772;2023-05-23T10:40:36;100171.81;;;23.37;54.03
71948;BME280;63257;55.082;38.772;2023-05-23T10:44:01;100174.50;;;23.37;55.19
71948;BME280;63257;55.082;38.772;2023-05-23T10:46:19;100146.09;;;23.17;55.38
71948;BME280;63257;55.082;38.772;2023-05-23T10:48:53;100162.47;;;23.24;55.45
71948;BME280;63257;55.082;38.772;2023-05-23T10:51:21;100175.28;;;23.30;55.01
71948;BME280;63257;55.082;38.772;2023-05-23T10:53:53;100149.41;;;23.37;54.35
71948;BME280;63257;55.082;38.772;2023-05-23T10:56:21;100165.03;;;23.68;53.87
71948;BME280;63257;55.082;38.772;2023-05-23T10:58:52;100160.72;;;23.83;54.17
71948;BME280;63257;55.082;38.772;2023-05-23T11:01:19;100154.41;;;24.01;53.69
71948;BME280;63257;55.082;38.772;2023-05-23T11:06:37;100138.78;;;24.21;49.64
71948;BME280;63257;55.082;38.772;2023-05-23T11:09:15;100140.47;;;24.30;52.44
71948;BME280;63257;55.082;38.772;2023-05-23T11:14:16;100145.56;;;24.42;48.94
71948;BME280;63257;55.082;38.772;2023-05-23T11:16:44;100133.59;;;24.44;48.97
71948;BME280;63257;55.082;38.772;2023-05-23T11:19:31;100147.09;;;24.36;47.75
71948;BME280;63257;55.082;38.772;2023-05-23T11:21:59;100129.88;;;24.37;48.67
71948;BME280;63257;55.082;38.772;2023-05-23T11:27:33;100132.75;;;24.60;47.76
71948;BME280;63257;55.082;38.772;2023-05-23T11:30:11;100134.63;;;24.93;45.81
71948;BME280;63257;55.082;38.772;2023-05-23T11:32:39;100132.44;;;24.71;45.56
71948;BME280;63257;55.082;38.772;2023-05-23T11:35:07;100087.91;;;24.76;47.18
71948;BME280;63257;55.082;38.772;2023-05-23T11:37:33;100131.53;;;25.20;45.65
71948;BME280;63257;55.082;38.772;2023-05-23T11:40:31;100126.94;;;25.37;45.03
71948;BME280;63257;55.082;38.772;2023-05-23T11:42:59;100127.97;;;25.28;44.37
71948;BME280;63257;55.082;38.772;2023-05-23T11:45:27;100106.00;;;25.31;44.81
71948;BME280;63257;55.082;38.772;2023-05-23T11:47:52;100107.91;;;25.62;44.10
71948;BME280;63257;55.082;38.772;2023-05-23T11:50:18;100108.59;;;26.04;43.26
71948;BME280;63257;55.082;38.772;2023-05-23T11:52:49;100102.38;;;26.18;42.43
71948;BME280;63257;55.082;38.772;2023-05-23T11:55:19;100092.38;;;25.96;43.54
71948;BME280;63257;55.082;38.772;2023-05-23T11:57:47;100108.66;;;25.87;43.41
71948;BME280;63257;55.082;38.772;2023-05-23T12:00:14;100106.34;;;25.76;42.75
71948;BME280;63257;55.082;38.772;2023-05-23T12:02:41;100115.97;;;26.10;42.72
71948;BME280;63257;55.082;38.772;2023-05-23T12:05:09;100106.97;;;25.86;42.35
71948;BME280;63257;55.082;38.772;2023-05-23T12:07:38;100111.88;;;26.14;43.27
71948;BME280;63257;55.082;38.772;2023-05-23T12:10:05;100116.59;;;26.20;42.91
71948;BME280;63257;55.082;38.772;2023-05-23T12:12:31;100107.09;;;25.93;41.82
71948;BME280;63257;55.082;38.772;2023-05-23T12:14:57;100102.25;;;25.88;41.07
71948;BME280;63257;55.082;38.772;2023-05-23T12:17:23;100099.31;;;25.67;40.98
71948;BME280;63257;55.082;38.772;2023-05-23T12:19:49;100101.22;;;25.50;40.17
71948;BME280;63257;55.082;38.772;2023-05-23T12:22:21;100107.84;;;25.47;41.10
71948;BME280;63257;55.082;38.772;2023-05-23T12:24:52;100096.03;;;25.32;42.48
71948;BME280;63257;55.082;38.772;2023-05-23T12:27:19;100115.66;;;25.34;41.64
71948;BME280;63257;55.082;38.772;2023-05-23T12:30:14;100112.81;;;25.67;40.35
71948;BME280;63257;55.082;38.772;2023-05-23T12:32:43;100106.06;;;26.02;38.58
71948;BME280;63257;55.082;38.772;2023-05-23T12:35:11;100104.38;;;26.24;38.45
71948;BME280;63257;55.082;38.772;2023-05-23T12:37:43;100098.03;;;26.17;38.35
71948;BME280;63257;55.082;38.772;2023-05-23T12:40:17;100096.84;;;26.35;37.72
71948;BME280;63257;55.082;38.772;2023-05-23T12:42:56;100086.78;;;26.67;36.30
71948;BME280;63257;55.082;38.772;2023-05-23T12:45:24;100086.31;;;27.01;34.18
71948;BME280;63257;55.082;38.772;2023-05-23T12:47:55;100079.03;;;27.17;33.50
71948;BME280;63257;55.082;38.772;2023-05-23T12:50:39;100091.28;;;27.42;33.01
71948;BME280;63257;55.082;38.772;2023-05-23T12:53:05;100079.13;;;27.23;34.64
71948;BME280;63257;55.082;38.772;2023-05-23T12:55:31;100087.13;;;27.02;36.17
71948;BME280;63257;55.082;38.772;2023-05-23T12:57:56;100086.75;;;27.05;36.43
71948;BME280;63257;55.082;38.772;2023-05-23T13:00:22;100077.63;;;27.06;37.43
71948;BME280;63257;55.082;38.772;2023-05-23T13:02:48;100087.97;;;27.17;34.40
71948;BME280;63257;55.082;38.772;2023-05-23T13:05:14;100072.19;;;27.21;34.18
71948;BME280;63257;55.082;38.772;2023-05-23T13:07:40;100066.69;;;27.29;34.84
71948;BME280;63257;55.082;38.772;2023-05-23T13:10:07;100056.31;;;27.18;34.64
71948;BME280;63257;55.082;38.772;2023-05-23T13:12:33;100037.38;;;27.18;35.46
71948;BME280;63257;55.082;38.772;2023-05-23T13:14:59;100063.25;;;27.05;36.29
71948;BME280;63257;55.082;38.772;2023-05-23T13:17:25;100033.25;;;26.77;35.72
71948;BME280;63257;55.082;38.772;2023-05-23T13:19:50;100047.84;;;26.68;37.36
71948;BME280;63257;55.082;38.772;2023-05-23T13:22:16;100060.81;;;26.57;38.98
71948;BME280;63257;55.082;38.772;2023-05-23T13:24:42;100064.81;;;26.47;36.58